sensor_id;sensor_type;location;lat;lon;timestamp;temperature;humidity
72650;SHT31;61467;50.674;4.618;2022-12-10T00:01:36;1.16;77.51
72650;SHT31;61467;50.674;4.618;2022-12-10T00:04:03;1.17;77.38
72650;SHT31;61467;50.674;4.618;2022-12-10T00:06:33;1.26;77.21
72650;SHT31;61467;50.674;4.618;2022-12-10T00:09:01;1.40;77.00
72650;SHT31;61467;50.674;4.618;2022-12-10T00:11:28;1.50;76.65
72650;SHT31;61467;50.674;4.618;2022-12-10T00:13:55;1.46;76.72
72650;SHT31;61467;50.674;4.618;2022-12-10T00:16:24;1.52;76.71
72650;SHT31;61467;50.674;4.618;2022-12-10T00:18:53;1.58;76.39
72650;SHT31;61467;50.674;4.618;2022-12-10T00:21:21;1.57;76.23
72650;SHT31;61467;50.674;4.618;2022-12-10T00:23:49;1.54;76.07
72650;SHT31;61467;50.674;4.618;2022-12-10T00:26:17;1.50;76.58
72650;SHT31;61467;50.674;4.618;2022-12-10T00:28:45;1.50;76.46
72650;SHT31;61467;50.674;4.618;2022-12-10T00:31:14;1.54;76.58
72650;SHT31;61467;50.674;4.618;2022-12-10T00:33:41;1.55;76.57
72650;SHT31;61467;50.674;4.618;2022-12-10T00:36:12;1.57;76.55
72650;SHT31;61467;50.674;4.618;2022-12-10T00:38:39;1.41;76.69
72650;SHT31;61467;50.674;4.618;2022-12-10T00:41:06;1.20;77.31
72650;SHT31;61467;50.674;4.618;2022-12-10T00:43:33;1.29;77.65
72650;SHT31;61467;50.674;4.618;2022-12-10T00:46:00;1.39;77.34
72650;SHT31;61467;50.674;4.618;2022-12-10T00:48:28;1.41;77.18
72650;SHT31;61467;50.674;4.618;2022-12-10T00:50:56;1.10;77.33
72650;SHT31;61467;50.674;4.618;2022-12-10T00:53:25;1.17;77.47
72650;SHT31;61467;50.674;4.618;2022-12-10T00:55:53;1.10;77.97
72650;SHT31;61467;50.674;4.618;2022-12-10T00:58:20;1.17;77.86
72650;SHT31;61467;50.674;4.618;2022-12-10T01:00:46;1.17;77.87
72650;SHT31;61467;50.674;4.618;2022-12-10T01:03:13;1.10;78.07
72650;SHT31;61467;50.674;4.618;2022-12-10T01:05:40;1.24;77.43
72650;SHT31;61467;50.674;4.618;2022-12-10T01:08:07;1.33;77.26
72650;SHT31;61467;50.674;4.618;2022-12-10T01:10:35;1.36;77.04
72650;SHT31;61467;50.674;4.618;2022-12-10T01:13:02;1.24;76.95
72650;SHT31;61467;50.674;4.618;2022-12-10T01:15:29;1.27;77.22
72650;SHT31;61467;50.674;4.618;2022-12-10T01:17:56;1.20;77.40
72650;SHT31;61467;50.674;4.618;2022-12-10T01:20:23;1.19;77.62
72650;SHT31;61467;50.674;4.618;2022-12-10T01:22:49;1.20;77.50
72650;SHT31;61467;50.674;4.618;2022-12-10T01:25:16;1.15;77.49
72650;SHT31;61467;50.674;4.618;2022-12-10T01:27:44;1.16;77.40
72650;SHT31;61467;50.674;4.618;2022-12-10T01:30:11;0.93;77.69
72650;SHT31;61467;50.674;4.618;2022-12-10T01:32:38;1.10;77.82
72650;SHT31;61467;50.674;4.618;2022-12-10T01:35:05;1.02;77.89
72650;SHT31;61467;50.674;4.618;2022-12-10T01:37:32;1.02;77.88
72650;SHT31;61467;50.674;4.618;2022-12-10T01:39:59;1.15;77.91
72650;SHT31;61467;50.674;4.618;2022-12-10T01:42:25;1.15;77.62
72650;SHT31;61467;50.674;4.618;2022-12-10T01:45:04;1.09;78.02
72650;SHT31;61467;50.674;4.618;2022-12-10T01:47:32;1.26;77.49
72650;SHT31;61467;50.674;4.618;2022-12-10T01:49:59;1.27;76.91
72650;SHT31;61467;50.674;4.618;2022-12-10T01:52:26;1.23;77.10
72650;SHT31;61467;50.674;4.618;2022-12-10T01:54:53;1.13;77.26
72650;SHT31;61467;50.674;4.618;2022-12-10T01:57:22;1.22;77.42
72650;SHT31;61467;50.674;4.618;2022-12-10T01:59:51;1.09;77.68
72650;SHT31;61467;50.674;4.618;2022-12-10T02:02:28;1.09;77.68
72650;SHT31;61467;50.674;4.618;2022-12-10T02:05:04;1.03;77.72
72650;SHT31;61467;50.674;4.618;2022-12-10T02:07:39;1.09;77.87
72650;SHT31;61467;50.674;4.618;2022-12-10T02:10:22;1.20;77.45
72650;SHT31;61467;50.674;4.618;2022-12-10T02:12:55;1.30;76.94
72650;SHT31;61467;50.674;4.618;2022-12-10T02:15:25;1.43;76.55
72650;SHT31;61467;50.674;4.618;2022-12-10T02:17:56;1.31;76.32
72650;SHT31;61467;50.674;4.618;2022-12-10T02:20:27;1.24;76.82
72650;SHT31;61467;50.674;4.618;2022-12-10T02:22:59;1.31;76.95
72650;SHT31;61467;50.674;4.618;2022-12-10T02:25:34;1.34;76.78
72650;SHT31;61467;50.674;4.618;2022-12-10T02:28:06;1.29;76.90
72650;SHT31;61467;50.674;4.618;2022-12-10T02:30:39;1.22;76.92
72650;SHT31;61467;50.674;4.618;2022-12-10T02:33:07;1.17;76.58
72650;SHT31;61467;50.674;4.618;2022-12-10T02:35:36;1.12;76.68
72650;SHT31;61467;50.674;4.618;2022-12-10T02:38:10;1.12;76.93
72650;SHT31;61467;50.674;4.618;2022-12-10T02:40:39;1.22;76.37
72650;SHT31;61467;50.674;4.618;2022-12-10T02:43:12;1.17;76.03
72650;SHT31;61467;50.674;4.618;2022-12-10T02:45:42;1.20;76.23
72650;SHT31;61467;50.674;4.618;2022-12-10T02:48:09;1.17;76.26
72650;SHT31;61467;50.674;4.618;2022-12-10T02:50:37;1.16;76.39
72650;SHT31;61467;50.674;4.618;2022-12-10T02:53:03;1.12;76.78
72650;SHT31;61467;50.674;4.618;2022-12-10T02:55:38;1.24;76.93
72650;SHT31;61467;50.674;4.618;2022-12-10T02:58:11;1.27;76.62
72650;SHT31;61467;50.674;4.618;2022-12-10T03:00:43;1.30;76.19
72650;SHT31;61467;50.674;4.618;2022-12-10T03:03:29;0.88;76.71
72650;SHT31;61467;50.674;4.618;2022-12-10T03:06:02;1.04;77.07
72650;SHT31;61467;50.674;4.618;2022-12-10T03:08:34;1.10;77.00
72650;SHT31;61467;50.674;4.618;2022-12-10T03:11:11;1.17;76.81
72650;SHT31;61467;50.674;4.618;2022-12-10T03:13:41;1.20;76.89
72650;SHT31;61467;50.674;4.618;2022-12-10T03:16:11;0.92;77.56
72650;SHT31;61467;50.674;4.618;2022-12-10T03:18:39;1.07;77.56
72650;SHT31;61467;50.674;4.618;2022-12-10T03:21:07;1.12;77.33
72650;SHT31;61467;50.674;4.618;2022-12-10T03:23:39;1.09;77.21
72650;SHT31;61467;50.674;4.618;2022-12-10T03:26:08;1.16;77.36
72650;SHT31;61467;50.674;4.618;2022-12-10T03:28:38;1.23;77.22
72650;SHT31;61467;50.674;4.618;2022-12-10T03:31:08;1.19;76.88
72650;SHT31;61467;50.674;4.618;2022-12-10T03:33:36;1.24;76.83
72650;SHT31;61467;50.674;4.618;2022-12-10T03:36:04;1.16;76.94
72650;SHT31;61467;50.674;4.618;2022-12-10T03:38:32;1.15;76.84
72650;SHT31;61467;50.674;4.618;2022-12-10T03:40:58;1.20;77.14
72650;SHT31;61467;50.674;4.618;2022-12-10T03:43:25;1.16;77.32
72650;SHT31;61467;50.674;4.618;2022-12-10T03:45:52;1.10;77.51
72650;SHT31;61467;50.674;4.618;2022-12-10T03:48:18;1.17;77.32
72650;SHT31;61467;50.674;4.618;2022-12-10T03:50:46;1.22;77.42
72650;SHT31;61467;50.674;4.618;2022-12-10T03:53:13;1.20;77.11
72650;SHT31;61467;50.674;4.618;2022-12-10T03:55:40;1.17;77.47
72650;SHT31;61467;50.674;4.618;2022-12-10T03:58:07;1.20;77.31
72650;SHT31;61467;50.674;4.618;2022-12-10T04:00:33;1.19;77.58
72650;SHT31;61467;50.674;4.618;2022-12-10T04:03:00;1.15;77.66
72650;SHT31;61467;50.674;4.618;2022-12-10T04:05:27;1.22;77.58
72650;SHT31;61467;50.674;4.618;2022-12-10T04:07:55;1.31;77.20
72650;SHT31;61467;50.674;4.618;2022-12-10T04:10:22;1.16;77.01
72650;SHT31;61467;50.674;4.618;2022-12-10T04:12:48;1.23;77.55
72650;SHT31;61467;50.674;4.618;2022-12-10T04:15:38;1.41;77.09
72650;SHT31;61467;50.674;4.618;2022-12-10T04:18:22;1.39;76.87
72650;SHT31;61467;50.674;4.618;2022-12-10T04:20:49;1.26;77.04
72650;SHT31;61467;50.674;4.618;2022-12-10T04:23:35;1.37;77.29
72650;SHT31;61467;50.674;4.618;2022-12-10T04:26:19;1.34;77.04
72650;SHT31;61467;50.674;4.618;2022-12-10T04:29:04;1.44;76.91
72650;SHT31;61467;50.674;4.618;2022-12-10T04:31:31;1.27;77.33
72650;SHT31;61467;50.674;4.618;2022-12-10T04:33:58;1.30;77.46
72650;SHT31;61467;50.674;4.618;2022-12-10T04:36:24;1.30;77.46
72650;SHT31;61467;50.674;4.618;2022-12-10T04:38:52;1.30;77.38
72650;SHT31;61467;50.674;4.618;2022-12-10T04:41:19;1.30;77.21
72650;SHT31;61467;50.674;4.618;2022-12-10T04:43:46;1.13;77.58
72650;SHT31;61467;50.674;4.618;2022-12-10T04:46:12;1.31;77.58
72650;SHT31;61467;50.674;4.618;2022-12-10T04:48:39;1.20;77.55
72650;SHT31;61467;50.674;4.618;2022-12-10T04:51:06;1.31;77.59
72650;SHT31;61467;50.674;4.618;2022-12-10T04:53:33;1.20;77.69
72650;SHT31;61467;50.674;4.618;2022-12-10T04:56:01;1.33;77.83
72650;SHT31;61467;50.674;4.618;2022-12-10T04:58:30;1.27;77.44
72650;SHT31;61467;50.674;4.618;2022-12-10T05:01:01;1.22;77.77
72650;SHT31;61467;50.674;4.618;2022-12-10T05:03:28;1.26;77.77
72650;SHT31;61467;50.674;4.618;2022-12-10T05:05:55;0.93;78.80
72650;SHT31;61467;50.674;4.618;2022-12-10T05:08:21;1.00;78.95
72650;SHT31;61467;50.674;4.618;2022-12-10T05:10:48;0.95;78.96
72650;SHT31;61467;50.674;4.618;2022-12-10T05:13:16;0.99;79.05
72650;SHT31;61467;50.674;4.618;2022-12-10T05:15:43;1.16;78.75
72650;SHT31;61467;50.674;4.618;2022-12-10T05:18:09;1.07;78.50
72650;SHT31;61467;50.674;4.618;2022-12-10T05:20:36;1.04;78.99
72650;SHT31;61467;50.674;4.618;2022-12-10T05:23:03;1.09;78.48
72650;SHT31;61467;50.674;4.618;2022-12-10T05:25:47;1.02;78.77
72650;SHT31;61467;50.674;4.618;2022-12-10T05:28:20;1.13;78.09
72650;SHT31;61467;50.674;4.618;2022-12-10T05:30:48;1.15;78.20
72650;SHT31;61467;50.674;4.618;2022-12-10T05:33:14;1.20;77.56
72650;SHT31;61467;50.674;4.618;2022-12-10T05:35:41;0.99;77.84
72650;SHT31;61467;50.674;4.618;2022-12-10T05:38:08;0.78;78.91
72650;SHT31;61467;50.674;4.618;2022-12-10T05:40:36;0.80;78.89
72650;SHT31;61467;50.674;4.618;2022-12-10T05:43:03;0.93;78.76
72650;SHT31;61467;50.674;4.618;2022-12-10T05:45:32;1.02;78.67
72650;SHT31;61467;50.674;4.618;2022-12-10T05:47:59;1.04;78.32
72650;SHT31;61467;50.674;4.618;2022-12-10T05:50:26;1.10;78.19
72650;SHT31;61467;50.674;4.618;2022-12-10T05:52:53;1.04;78.46
72650;SHT31;61467;50.674;4.618;2022-12-10T05:55:20;1.03;78.90
72650;SHT31;61467;50.674;4.618;2022-12-10T05:57:46;0.92;78.95
72650;SHT31;61467;50.674;4.618;2022-12-10T06:00:13;1.12;78.45
72650;SHT31;61467;50.674;4.618;2022-12-10T06:02:42;1.04;78.45
72650;SHT31;61467;50.674;4.618;2022-12-10T06:05:08;1.03;78.79
72650;SHT31;61467;50.674;4.618;2022-12-10T06:07:35;1.02;78.57
72650;SHT31;61467;50.674;4.618;2022-12-10T06:10:02;1.06;78.43
72650;SHT31;61467;50.674;4.618;2022-12-10T06:12:29;1.04;78.49
72650;SHT31;61467;50.674;4.618;2022-12-10T06:14:56;1.09;78.55
72650;SHT31;61467;50.674;4.618;2022-12-10T06:17:23;1.17;78.44
72650;SHT31;61467;50.674;4.618;2022-12-10T06:19:51;1.19;78.25
72650;SHT31;61467;50.674;4.618;2022-12-10T06:22:17;1.20;78.07
72650;SHT31;61467;50.674;4.618;2022-12-10T06:24:44;1.19;78.16
72650;SHT31;61467;50.674;4.618;2022-12-10T06:27:11;1.22;78.12
72650;SHT31;61467;50.674;4.618;2022-12-10T06:29:37;1.24;77.94
72650;SHT31;61467;50.674;4.618;2022-12-10T06:32:04;1.19;78.10
72650;SHT31;61467;50.674;4.618;2022-12-10T06:34:31;1.19;78.25
72650;SHT31;61467;50.674;4.618;2022-12-10T06:36:59;1.22;78.19
72650;SHT31;61467;50.674;4.618;2022-12-10T06:39:26;1.19;78.13
72650;SHT31;61467;50.674;4.618;2022-12-10T06:41:53;1.15;78.24
72650;SHT31;61467;50.674;4.618;2022-12-10T06:44:19;0.95;78.93
72650;SHT31;61467;50.674;4.618;2022-12-10T06:46:46;1.02;78.64
72650;SHT31;61467;50.674;4.618;2022-12-10T06:49:13;1.15;78.45
72650;SHT31;61467;50.674;4.618;2022-12-10T06:51:39;1.19;78.04
72650;SHT31;61467;50.674;4.618;2022-12-10T06:54:07;1.19;77.91
72650;SHT31;61467;50.674;4.618;2022-12-10T06:56:34;1.06;77.96
72650;SHT31;61467;50.674;4.618;2022-12-10T06:59:03;0.88;78.69
72650;SHT31;61467;50.674;4.618;2022-12-10T07:01:31;0.82;79.33
72650;SHT31;61467;50.674;4.618;2022-12-10T07:03:58;0.90;79.08
72650;SHT31;61467;50.674;4.618;2022-12-10T07:06:26;0.95;79.37
72650;SHT31;61467;50.674;4.618;2022-12-10T07:08:54;0.83;79.63
72650;SHT31;61467;50.674;4.618;2022-12-10T07:11:23;0.99;79.50
72650;SHT31;61467;50.674;4.618;2022-12-10T07:13:50;0.97;79.25
72650;SHT31;61467;50.674;4.618;2022-12-10T07:16:20;1.10;78.93
72650;SHT31;61467;50.674;4.618;2022-12-10T07:18:48;1.09;78.61
72650;SHT31;61467;50.674;4.618;2022-12-10T07:21:16;1.10;78.68
72650;SHT31;61467;50.674;4.618;2022-12-10T07:23:43;0.93;79.22
72650;SHT31;61467;50.674;4.618;2022-12-10T07:26:10;0.93;79.42
72650;SHT31;61467;50.674;4.618;2022-12-10T07:28:38;1.00;79.11
72650;SHT31;61467;50.674;4.618;2022-12-10T07:31:07;1.03;78.66
72650;SHT31;61467;50.674;4.618;2022-12-10T07:33:35;1.22;79.55
72650;SHT31;61467;50.674;4.618;2022-12-10T07:36:04;1.24;78.30
72650;SHT31;61467;50.674;4.618;2022-12-10T07:38:31;1.16;78.07
72650;SHT31;61467;50.674;4.618;2022-12-10T07:41:02;1.20;78.18
72650;SHT31;61467;50.674;4.618;2022-12-10T07:43:29;1.16;78.16
72650;SHT31;61467;50.674;4.618;2022-12-10T07:46:02;1.12;78.35
72650;SHT31;61467;50.674;4.618;2022-12-10T07:48:29;0.96;78.86
72650;SHT31;61467;50.674;4.618;2022-12-10T07:50:57;1.17;78.58
72650;SHT31;61467;50.674;4.618;2022-12-10T07:53:23;1.07;78.51
72650;SHT31;61467;50.674;4.618;2022-12-10T07:55:50;1.20;78.23
72650;SHT31;61467;50.674;4.618;2022-12-10T07:58:17;1.20;78.13
72650;SHT31;61467;50.674;4.618;2022-12-10T08:00:44;1.20;78.20
72650;SHT31;61467;50.674;4.618;2022-12-10T08:03:12;1.12;78.26
72650;SHT31;61467;50.674;4.618;2022-12-10T08:05:39;0.82;78.72
72650;SHT31;61467;50.674;4.618;2022-12-10T08:08:06;0.97;79.15
72650;SHT31;61467;50.674;4.618;2022-12-10T08:10:33;0.83;79.18
72650;SHT31;61467;50.674;4.618;2022-12-10T08:13:00;0.71;80.13
72650;SHT31;61467;50.674;4.618;2022-12-10T08:15:27;0.82;79.75
72650;SHT31;61467;50.674;4.618;2022-12-10T08:17:55;0.88;79.66
72650;SHT31;61467;50.674;4.618;2022-12-10T08:20:24;0.92;79.50
72650;SHT31;61467;50.674;4.618;2022-12-10T08:22:51;0.59;79.75
72650;SHT31;61467;50.674;4.618;2022-12-10T08:25:17;0.75;79.86
72650;SHT31;61467;50.674;4.618;2022-12-10T08:27:44;0.78;79.68
72650;SHT31;61467;50.674;4.618;2022-12-10T08:30:12;0.90;79.70
72650;SHT31;61467;50.674;4.618;2022-12-10T08:32:38;0.72;80.14
72650;SHT31;61467;50.674;4.618;2022-12-10T08:35:06;0.83;80.06
72650;SHT31;61467;50.674;4.618;2022-12-10T08:37:34;0.85;79.61
72650;SHT31;61467;50.674;4.618;2022-12-10T08:40:01;0.96;79.59
72650;SHT31;61467;50.674;4.618;2022-12-10T08:42:28;0.99;79.67
72650;SHT31;61467;50.674;4.618;2022-12-10T08:44:55;1.07;79.97
72650;SHT31;61467;50.674;4.618;2022-12-10T08:47:21;1.10;80.36
72650;SHT31;61467;50.674;4.618;2022-12-10T08:49:48;1.15;79.33
72650;SHT31;61467;50.674;4.618;2022-12-10T08:52:15;1.20;79.32
72650;SHT31;61467;50.674;4.618;2022-12-10T08:54:43;1.04;78.78
72650;SHT31;61467;50.674;4.618;2022-12-10T08:57:10;1.07;79.57
72650;SHT31;61467;50.674;4.618;2022-12-10T08:59:36;1.07;79.68
72650;SHT31;61467;50.674;4.618;2022-12-10T09:02:03;1.04;79.81
72650;SHT31;61467;50.674;4.618;2022-12-10T09:04:30;1.13;79.64
72650;SHT31;61467;50.674;4.618;2022-12-10T09:06:56;1.20;79.53
72650;SHT31;61467;50.674;4.618;2022-12-10T09:09:23;1.19;79.17
72650;SHT31;61467;50.674;4.618;2022-12-10T09:11:51;1.07;79.45
72650;SHT31;61467;50.674;4.618;2022-12-10T09:14:18;1.19;79.45
72650;SHT31;61467;50.674;4.618;2022-12-10T09:16:45;1.17;78.99
72650;SHT31;61467;50.674;4.618;2022-12-10T09:19:12;1.02;79.89
72650;SHT31;61467;50.674;4.618;2022-12-10T09:21:38;1.06;79.68
72650;SHT31;61467;50.674;4.618;2022-12-10T09:24:06;0.99;79.52
72650;SHT31;61467;50.674;4.618;2022-12-10T09:26:33;1.16;80.60
72650;SHT31;61467;50.674;4.618;2022-12-10T09:29:01;0.92;80.45
72650;SHT31;61467;50.674;4.618;2022-12-10T09:31:27;1.06;79.98
72650;SHT31;61467;50.674;4.618;2022-12-10T09:33:54;1.12;79.69
72650;SHT31;61467;50.674;4.618;2022-12-10T09:36:21;1.17;79.43
72650;SHT31;61467;50.674;4.618;2022-12-10T09:38:49;1.10;79.36
72650;SHT31;61467;50.674;4.618;2022-12-10T09:41:35;1.23;79.36
72650;SHT31;61467;50.674;4.618;2022-12-10T09:44:11;1.13;79.11
72650;SHT31;61467;50.674;4.618;2022-12-10T09:46:46;1.22;79.09
72650;SHT31;61467;50.674;4.618;2022-12-10T09:49:21;1.20;79.64
72650;SHT31;61467;50.674;4.618;2022-12-10T09:51:50;1.36;79.43
72650;SHT31;61467;50.674;4.618;2022-12-10T09:54:24;1.30;78.88
72650;SHT31;61467;50.674;4.618;2022-12-10T09:56:54;1.30;78.85
72650;SHT31;61467;50.674;4.618;2022-12-10T09:59:25;1.36;78.91
72650;SHT31;61467;50.674;4.618;2022-12-10T10:02:18;1.23;79.02
72650;SHT31;61467;50.674;4.618;2022-12-10T10:04:46;1.43;78.65
72650;SHT31;61467;50.674;4.618;2022-12-10T10:07:18;1.23;78.51
72650;SHT31;61467;50.674;4.618;2022-12-10T10:09:46;1.17;78.50
72650;SHT31;61467;50.674;4.618;2022-12-10T10:12:15;1.13;78.42
72650;SHT31;61467;50.674;4.618;2022-12-10T10:14:44;1.15;78.96
72650;SHT31;61467;50.674;4.618;2022-12-10T10:17:16;1.12;78.59
72650;SHT31;61467;50.674;4.618;2022-12-10T10:19:45;1.03;78.90
72650;SHT31;61467;50.674;4.618;2022-12-10T10:22:12;1.20;79.42
72650;SHT31;61467;50.674;4.618;2022-12-10T10:24:41;1.29;78.87
72650;SHT31;61467;50.674;4.618;2022-12-10T10:27:13;1.29;78.77
72650;SHT31;61467;50.674;4.618;2022-12-10T10:29:41;1.26;78.98
72650;SHT31;61467;50.674;4.618;2022-12-10T10:32:16;1.04;79.90
72650;SHT31;61467;50.674;4.618;2022-12-10T10:34:44;1.20;79.58
72650;SHT31;61467;50.674;4.618;2022-12-10T10:37:16;1.24;79.20
72650;SHT31;61467;50.674;4.618;2022-12-10T10:39:49;1.41;79.14
72650;SHT31;61467;50.674;4.618;2022-12-10T10:42:31;1.43;78.35
72650;SHT31;61467;50.674;4.618;2022-12-10T10:44:59;1.40;78.86
72650;SHT31;61467;50.674;4.618;2022-12-10T10:47:28;1.46;78.15
72650;SHT31;61467;50.674;4.618;2022-12-10T10:49:56;1.41;78.39
72650;SHT31;61467;50.674;4.618;2022-12-10T10:52:27;1.40;78.48
72650;SHT31;61467;50.674;4.618;2022-12-10T10:54:55;1.46;78.54
72650;SHT31;61467;50.674;4.618;2022-12-10T10:57:25;1.44;78.40
72650;SHT31;61467;50.674;4.618;2022-12-10T10:59:55;1.50;78.72
72650;SHT31;61467;50.674;4.618;2022-12-10T11:02:26;1.54;78.66
72650;SHT31;61467;50.674;4.618;2022-12-10T11:04:57;1.40;78.37
72650;SHT31;61467;50.674;4.618;2022-12-10T11:07:33;1.54;78.63
72650;SHT31;61467;50.674;4.618;2022-12-10T11:10:02;1.65;78.29
72650;SHT31;61467;50.674;4.618;2022-12-10T11:12:34;1.72;78.04
72650;SHT31;61467;50.674;4.618;2022-12-10T11:15:02;1.48;78.13
72650;SHT31;61467;50.674;4.618;2022-12-10T11:17:30;2.39;85.34
72650;SHT31;61467;50.674;4.618;2022-12-10T11:20:00;2.20;76.72
72650;SHT31;61467;50.674;4.618;2022-12-10T11:22:31;2.25;76.45
72650;SHT31;61467;50.674;4.618;2022-12-10T11:24:59;2.08;76.88
72650;SHT31;61467;50.674;4.618;2022-12-10T11:27:37;2.03;77.00
72650;SHT31;61467;50.674;4.618;2022-12-10T11:30:10;2.06;77.02
72650;SHT31;61467;50.674;4.618;2022-12-10T11:32:58;1.98;77.23
72650;SHT31;61467;50.674;4.618;2022-12-10T11:35:40;1.92;77.34
72650;SHT31;61467;50.674;4.618;2022-12-10T11:38:18;1.89;77.47
72650;SHT31;61467;50.674;4.618;2022-12-10T11:40:49;1.89;77.39
72650;SHT31;61467;50.674;4.618;2022-12-10T11:43:27;1.77;78.30
72650;SHT31;61467;50.674;4.618;2022-12-10T11:46:07;1.68;78.41
72650;SHT31;61467;50.674;4.618;2022-12-10T11:48:50;1.82;78.61
72650;SHT31;61467;50.674;4.618;2022-12-10T11:51:28;1.95;78.26
72650;SHT31;61467;50.674;4.618;2022-12-10T11:54:14;1.97;77.97
72650;SHT31;61467;50.674;4.618;2022-12-10T11:56:49;1.88;77.67
72650;SHT31;61467;50.674;4.618;2022-12-10T11:59:23;1.86;78.35
72650;SHT31;61467;50.674;4.618;2022-12-10T12:02:03;1.82;78.20
72650;SHT31;61467;50.674;4.618;2022-12-10T12:04:53;1.89;78.22
72650;SHT31;61467;50.674;4.618;2022-12-10T12:07:36;1.78;78.36
72650;SHT31;61467;50.674;4.618;2022-12-10T12:10:35;1.89;77.89
72650;SHT31;61467;50.674;4.618;2022-12-10T12:13:10;1.74;78.73
72650;SHT31;61467;50.674;4.618;2022-12-10T12:15:40;1.97;78.52
72650;SHT31;61467;50.674;4.618;2022-12-10T12:18:13;1.81;78.68
72650;SHT31;61467;50.674;4.618;2022-12-10T12:20:45;1.91;78.81
72650;SHT31;61467;50.674;4.618;2022-12-10T12:23:21;1.86;78.44
72650;SHT31;61467;50.674;4.618;2022-12-10T12:25:51;1.95;78.25
72650;SHT31;61467;50.674;4.618;2022-12-10T12:28:21;1.91;78.34
72650;SHT31;61467;50.674;4.618;2022-12-10T12:30:57;1.95;78.49
72650;SHT31;61467;50.674;4.618;2022-12-10T12:33:29;1.95;78.41
72650;SHT31;61467;50.674;4.618;2022-12-10T12:36:02;1.86;78.44
72650;SHT31;61467;50.674;4.618;2022-12-10T12:38:42;1.94;77.89
72650;SHT31;61467;50.674;4.618;2022-12-10T12:41:13;1.83;78.69
72650;SHT31;61467;50.674;4.618;2022-12-10T12:43:47;1.89;78.77
72650;SHT31;61467;50.674;4.618;2022-12-10T12:46:20;1.83;78.47
72650;SHT31;61467;50.674;4.618;2022-12-10T12:48:52;1.97;78.66
72650;SHT31;61467;50.674;4.618;2022-12-10T12:51:26;2.05;78.10
72650;SHT31;61467;50.674;4.618;2022-12-10T12:53:54;1.67;78.71
72650;SHT31;61467;50.674;4.618;2022-12-10T12:56:26;1.82;78.82
72650;SHT31;61467;50.674;4.618;2022-12-10T12:59:03;1.85;78.92
72650;SHT31;61467;50.674;4.618;2022-12-10T13:01:36;1.75;79.07
72650;SHT31;61467;50.674;4.618;2022-12-10T13:04:05;1.95;78.60
72650;SHT31;61467;50.674;4.618;2022-12-10T13:06:35;2.08;78.23
72650;SHT31;61467;50.674;4.618;2022-12-10T13:09:26;1.97;78.40
72650;SHT31;61467;50.674;4.618;2022-12-10T13:12:17;2.12;78.22
72650;SHT31;61467;50.674;4.618;2022-12-10T13:14:56;2.16;77.92
72650;SHT31;61467;50.674;4.618;2022-12-10T13:17:31;2.02;78.30
72650;SHT31;61467;50.674;4.618;2022-12-10T13:20:29;1.74;78.87
72650;SHT31;61467;50.674;4.618;2022-12-10T13:22:58;1.82;79.08
72650;SHT31;61467;50.674;4.618;2022-12-10T13:28:49;1.58;80.24
72650;SHT31;61467;50.674;4.618;2022-12-10T13:31:19;1.81;79.78
72650;SHT31;61467;50.674;4.618;2022-12-10T13:33:50;1.89;79.05
72650;SHT31;61467;50.674;4.618;2022-12-10T13:36:36;1.83;79.38
72650;SHT31;61467;50.674;4.618;2022-12-10T13:39:21;1.97;79.11
72650;SHT31;61467;50.674;4.618;2022-12-10T13:45:29;1.85;80.03
72650;SHT31;61467;50.674;4.618;2022-12-10T13:48:26;2.05;79.29
72650;SHT31;61467;50.674;4.618;2022-12-10T13:51:08;1.92;79.56
72650;SHT31;61467;50.674;4.618;2022-12-10T13:53:44;2.02;79.16
72650;SHT31;61467;50.674;4.618;2022-12-10T13:56:17;1.91;79.87
72650;SHT31;61467;50.674;4.618;2022-12-10T13:58:54;2.03;79.38
72650;SHT31;61467;50.674;4.618;2022-12-10T14:01:32;1.72;80.00
72650;SHT31;61467;50.674;4.618;2022-12-10T14:04:10;1.98;79.75
72650;SHT31;61467;50.674;4.618;2022-12-10T14:06:42;2.08;78.93
72650;SHT31;61467;50.674;4.618;2022-12-10T14:09:15;2.10;78.97
72650;SHT31;61467;50.674;4.618;2022-12-10T14:11:47;2.08;78.96
72650;SHT31;61467;50.674;4.618;2022-12-10T14:14:22;2.09;79.16
72650;SHT31;61467;50.674;4.618;2022-12-10T14:16:51;1.94;79.33
72650;SHT31;61467;50.674;4.618;2022-12-10T14:19:26;2.09;78.97
72650;SHT31;61467;50.674;4.618;2022-12-10T14:21:54;2.01;78.75
72650;SHT31;61467;50.674;4.618;2022-12-10T14:24:33;2.22;78.73
72650;SHT31;61467;50.674;4.618;2022-12-10T14:27:02;2.19;78.93
72650;SHT31;61467;50.674;4.618;2022-12-10T14:29:30;2.12;79.41
72650;SHT31;61467;50.674;4.618;2022-12-10T14:31:58;2.19;79.01
72650;SHT31;61467;50.674;4.618;2022-12-10T14:34:27;2.22;78.84
72650;SHT31;61467;50.674;4.618;2022-12-10T14:36:56;2.15;79.32
72650;SHT31;61467;50.674;4.618;2022-12-10T14:39:26;2.28;78.99
72650;SHT31;61467;50.674;4.618;2022-12-10T14:41:56;2.28;78.51
72650;SHT31;61467;50.674;4.618;2022-12-10T14:44:24;2.18;78.66
72650;SHT31;61467;50.674;4.618;2022-12-10T14:46:51;2.20;78.85
72650;SHT31;61467;50.674;4.618;2022-12-10T14:49:23;2.16;78.92
72650;SHT31;61467;50.674;4.618;2022-12-10T14:51:50;2.19;78.78
72650;SHT31;61467;50.674;4.618;2022-12-10T14:54:27;2.12;79.15
72650;SHT31;61467;50.674;4.618;2022-12-10T14:56:58;2.19;79.06
72650;SHT31;61467;50.674;4.618;2022-12-10T14:59:28;2.19;78.87
72650;SHT31;61467;50.674;4.618;2022-12-10T15:02:01;2.18;79.11
72650;SHT31;61467;50.674;4.618;2022-12-10T15:04:39;2.09;78.88
72650;SHT31;61467;50.674;4.618;2022-12-10T15:07:11;2.06;79.27
72650;SHT31;61467;50.674;4.618;2022-12-10T15:09:39;2.18;79.14
72650;SHT31;61467;50.674;4.618;2022-12-10T15:12:23;2.15;79.11
72650;SHT31;61467;50.674;4.618;2022-12-10T15:14:53;1.97;79.70
72650;SHT31;61467;50.674;4.618;2022-12-10T15:17:34;2.03;79.62
72650;SHT31;61467;50.674;4.618;2022-12-10T15:20:10;2.05;79.22
72650;SHT31;61467;50.674;4.618;2022-12-10T15:22:36;2.08;79.57
72650;SHT31;61467;50.674;4.618;2022-12-10T15:25:14;2.20;79.21
72650;SHT31;61467;50.674;4.618;2022-12-10T15:28:00;2.16;79.33
72650;SHT31;61467;50.674;4.618;2022-12-10T15:30:36;1.83;80.16
72650;SHT31;61467;50.674;4.618;2022-12-10T15:33:20;2.03;79.69
72650;SHT31;61467;50.674;4.618;2022-12-10T15:35:49;1.88;79.77
72650;SHT31;61467;50.674;4.618;2022-12-10T15:38:20;1.98;79.66
72650;SHT31;61467;50.674;4.618;2022-12-10T15:40:46;2.06;79.61
72650;SHT31;61467;50.674;4.618;2022-12-10T15:43:24;1.85;79.57
72650;SHT31;61467;50.674;4.618;2022-12-10T15:45:51;1.89;79.84
72650;SHT31;61467;50.674;4.618;2022-12-10T15:48:20;1.97;79.91
72650;SHT31;61467;50.674;4.618;2022-12-10T15:50:50;1.95;79.52
72650;SHT31;61467;50.674;4.618;2022-12-10T15:53:24;1.67;80.30
72650;SHT31;61467;50.674;4.618;2022-12-10T15:55:54;1.95;80.17
72650;SHT31;61467;50.674;4.618;2022-12-10T15:58:21;2.02;79.55
72650;SHT31;61467;50.674;4.618;2022-12-10T16:00:48;1.92;79.73
72650;SHT31;61467;50.674;4.618;2022-12-10T16:03:16;1.89;80.18
72650;SHT31;61467;50.674;4.618;2022-12-10T16:05:43;1.97;79.91
72650;SHT31;61467;50.674;4.618;2022-12-10T16:08:17;1.95;79.92
72650;SHT31;61467;50.674;4.618;2022-12-10T16:10:46;1.98;79.96
72650;SHT31;61467;50.674;4.618;2022-12-10T16:13:15;2.06;79.79